createdAt,value
2023-01-18T00:01:22.101Z,2.97
2023-01-18T00:03:49.857Z,6.95
2023-01-18T00:06:18.019Z,1.50
2023-01-18T00:08:45.746Z,4.38
2023-01-18T00:11:17.044Z,7.90
2023-01-18T00:13:45.065Z,6.20
2023-01-18T00:16:13.664Z,5.00
2023-01-18T00:18:41.426Z,6.43
2023-01-18T00:21:11.068Z,5.38
2023-01-18T00:23:39.161Z,6.15
2023-01-18T00:26:09.439Z,4.25
2023-01-18T00:31:16.615Z,6.72
2023-01-18T00:33:48.994Z,6.30
2023-01-18T00:36:17.467Z,3.80
2023-01-18T00:38:44.948Z,5.60
2023-01-18T00:41:12.443Z,4.18
2023-01-18T00:43:40.269Z,3.67
2023-01-18T00:46:08.939Z,7.18
2023-01-18T00:48:37.211Z,5.22
2023-01-18T00:51:05.184Z,6.85
2023-01-18T00:53:32.903Z,6.53
2023-01-18T00:56:00.470Z,5.18
2023-01-18T00:58:29.043Z,5.03
2023-01-18T01:00:56.603Z,6.03
2023-01-18T01:03:24.357Z,6.28
2023-01-18T01:06:10.808Z,6.90
2023-01-18T01:08:38.507Z,6.88
2023-01-18T01:11:09.744Z,5.03
2023-01-18T01:13:56.283Z,7.43
2023-01-18T01:16:42.187Z,6.20
2023-01-18T01:19:28.478Z,8.40
2023-01-18T01:22:14.968Z,6.57
2023-01-18T01:25:01.012Z,4.00
2023-01-18T01:27:28.704Z,6.78
2023-01-18T01:29:56.718Z,5.75
2023-01-18T01:32:25.172Z,7.25
2023-01-18T01:34:52.725Z,3.55
2023-01-18T01:37:20.213Z,5.00
2023-01-18T01:39:47.888Z,4.82
2023-01-18T01:42:15.688Z,6.70
2023-01-18T01:44:44.691Z,6.35
2023-01-18T01:47:12.412Z,6.03
2023-01-18T01:49:46.834Z,5.03
2023-01-18T01:52:15.585Z,6.13
2023-01-18T01:55:01.690Z,5.38
2023-01-18T01:57:37.592Z,9.77
2023-01-18T02:00:12.014Z,7.50
2023-01-18T02:02:40.382Z,6.45
2023-01-18T02:05:09.892Z,6.05
2023-01-18T02:07:37.415Z,5.18
2023-01-18T02:10:05.857Z,3.30
2023-01-18T02:12:34.793Z,6.55
2023-01-18T02:15:03.137Z,5.60
2023-01-18T02:17:38.849Z,5.75
2023-01-18T02:20:38.112Z,5.75
2023-01-18T02:23:31.261Z,7.80
2023-01-18T02:26:36.011Z,7.22
2023-01-18T02:29:17.932Z,4.88
2023-01-18T02:32:08.936Z,6.00
2023-01-18T02:35:06.863Z,4.88
2023-01-18T02:37:55.821Z,5.72
2023-01-18T02:40:39.684Z,6.55
2023-01-18T02:43:28.755Z,7.97
2023-01-18T02:46:16.423Z,4.95
2023-01-18T02:48:45.250Z,4.53
2023-01-18T02:51:12.916Z,6.90
2023-01-18T02:53:43.642Z,5.32
2023-01-18T02:56:22.147Z,6.25
2023-01-18T02:58:51.357Z,6.28
2023-01-18T03:01:29.985Z,7.03
2023-01-18T03:04:22.129Z,6.65
2023-01-18T03:06:57.519Z,5.82
2023-01-18T03:09:27.227Z,4.75
2023-01-18T03:12:12.287Z,8.20
2023-01-18T03:14:56.338Z,7.55
2023-01-18T03:17:36.315Z,8.30
2023-01-18T03:20:09.754Z,6.03
2023-01-18T03:23:34.368Z,7.50
2023-01-18T03:26:03.743Z,5.63
2023-01-18T03:28:57.805Z,6.43
2023-01-18T03:31:52.436Z,6.80
2023-01-18T03:34:46.270Z,4.65
2023-01-18T03:37:34.441Z,1.48
2023-01-18T03:40:03.561Z,0.90
2023-01-18T03:42:45.291Z,0.70
2023-01-18T03:45:33.151Z,0.80
2023-01-18T03:48:01.848Z,0.40
2023-01-18T03:50:37.181Z,0.80
2023-01-18T03:53:12.437Z,1.33
2023-01-18T03:55:43.585Z,1.42
2023-01-18T03:58:13.327Z,1.40
2023-01-18T04:00:41.180Z,1.55
2023-01-18T04:03:08.745Z,1.13
2023-01-18T04:05:36.675Z,1.88
2023-01-18T04:08:04.457Z,0.82
2023-01-18T04:10:32.241Z,1.30
2023-01-18T04:13:00.140Z,2.20
2023-01-18T04:15:28.030Z,1.90
2023-01-18T04:17:56.430Z,1.17
2023-01-18T04:20:24.534Z,1.10
2023-01-18T04:22:53.015Z,1.33
2023-01-18T04:25:21.091Z,0.98
2023-01-18T04:27:48.753Z,1.23
2023-01-18T04:30:17.553Z,1.08
2023-01-18T04:32:46.402Z,1.00
2023-01-18T04:35:14.264Z,2.35
2023-01-18T04:37:42.149Z,9.50
2023-01-18T04:40:10.408Z,12.25
2023-01-18T04:42:38.204Z,12.27
2023-01-18T04:45:06.303Z,10.82
2023-01-18T04:47:34.312Z,13.57
2023-01-18T04:50:02.418Z,9.60
2023-01-18T04:52:32.293Z,10.60
2023-01-18T04:54:59.768Z,10.27
2023-01-18T04:57:27.381Z,11.98
2023-01-18T04:59:55.112Z,13.00
2023-01-18T05:02:22.886Z,12.82
2023-01-18T05:04:50.738Z,8.70
2023-01-18T05:07:18.408Z,11.15
2023-01-18T05:09:46.348Z,10.32
2023-01-18T05:12:14.354Z,12.05
2023-01-18T05:14:42.473Z,9.52
2023-01-18T05:17:10.150Z,7.75
2023-01-18T05:19:37.824Z,8.02
2023-01-18T05:22:05.496Z,5.68
2023-01-18T05:24:33.233Z,3.22
2023-01-18T05:27:00.931Z,10.95
2023-01-18T05:29:28.654Z,7.25
2023-01-18T05:31:57.142Z,13.25
2023-01-18T05:34:25.288Z,5.80
2023-01-18T05:36:52.798Z,3.67
2023-01-18T05:39:20.683Z,7.45
2023-01-18T05:41:48.325Z,7.95
2023-01-18T05:44:15.992Z,5.78
2023-01-18T05:46:43.720Z,6.10
2023-01-18T05:49:11.909Z,10.02
2023-01-18T05:51:39.708Z,7.88
2023-01-18T05:54:07.784Z,9.50
2023-01-18T05:56:35.647Z,7.93
2023-01-18T05:59:03.088Z,6.47
2023-01-18T06:01:30.873Z,7.45
2023-01-18T06:03:58.516Z,6.43
2023-01-18T06:06:26.274Z,6.55
2023-01-18T06:08:53.776Z,10.10
2023-01-18T06:11:21.442Z,7.70
2023-01-18T06:13:49.130Z,7.40
2023-01-18T06:16:16.906Z,8.10
2023-01-18T06:18:45.177Z,10.18
2023-01-18T06:21:13.079Z,8.23
2023-01-18T06:23:40.717Z,10.68
2023-01-18T06:26:08.405Z,9.95
2023-01-18T06:28:36.184Z,10.73
2023-01-18T06:31:07.836Z,11.52
2023-01-18T06:33:35.548Z,8.15
2023-01-18T06:36:03.219Z,9.02
2023-01-18T06:38:31.353Z,6.95
2023-01-18T06:40:58.955Z,7.30
2023-01-18T06:43:26.623Z,9.88
2023-01-18T06:45:57.591Z,12.60
2023-01-18T06:48:26.530Z,10.43
2023-01-18T06:50:56.791Z,7.10
2023-01-18T06:55:59.255Z,10.40
2023-01-18T06:58:28.336Z,12.02
2023-01-18T07:01:00.482Z,9.80
2023-01-18T07:03:28.948Z,9.65
2023-01-18T07:06:00.649Z,8.63
2023-01-18T07:08:31.053Z,3.80
2023-01-18T07:10:59.564Z,6.55
2023-01-18T07:13:27.337Z,6.95
2023-01-18T07:16:01.150Z,11.88
2023-01-18T07:18:30.120Z,6.90
2023-01-18T07:21:07.770Z,4.90
2023-01-18T07:23:37.002Z,6.70
2023-01-18T07:26:16.318Z,7.35
2023-01-18T07:28:45.745Z,6.80
2023-01-18T07:31:14.868Z,6.43
2023-01-18T07:33:42.510Z,6.57
2023-01-18T07:36:11.011Z,7.35
2023-01-18T07:38:39.025Z,4.28
2023-01-18T07:41:09.155Z,5.22
2023-01-18T07:43:40.165Z,8.23
2023-01-18T07:46:10.557Z,5.82
2023-01-18T07:48:39.132Z,7.47
2023-01-18T07:51:08.986Z,8.15
2023-01-18T07:53:37.672Z,3.95
2023-01-18T07:56:08.460Z,7.60
2023-01-18T07:58:36.817Z,6.93
2023-01-18T08:01:23.985Z,6.03
2023-01-18T08:03:53.730Z,5.07
2023-01-18T08:06:25.098Z,5.53
2023-01-18T08:08:54.234Z,6.45
2023-01-18T08:11:22.040Z,6.85
2023-01-18T08:13:50.730Z,5.25
2023-01-18T08:16:18.467Z,5.40
2023-01-18T08:18:46.021Z,7.72
2023-01-18T08:21:17.694Z,5.60
2023-01-18T08:23:45.602Z,6.13
2023-01-18T08:26:15.137Z,8.30
2023-01-18T08:28:44.846Z,5.40
2023-01-18T08:31:16.290Z,8.00
2023-01-18T08:33:48.879Z,7.60
2023-01-18T08:36:25.987Z,10.88
2023-01-18T08:38:57.220Z,6.55
2023-01-18T08:41:30.587Z,6.03
2023-01-18T08:44:00.162Z,5.88
2023-01-18T08:46:28.350Z,5.70
2023-01-18T08:48:57.859Z,9.85
2023-01-18T08:51:26.301Z,7.03
2023-01-18T08:53:57.522Z,7.55
2023-01-18T08:56:27.392Z,5.38
2023-01-18T08:58:55.122Z,5.65
2023-01-18T09:01:24.043Z,13.65
2023-01-18T09:03:55.464Z,10.60
2023-01-18T09:06:23.401Z,9.40
2023-01-18T09:08:51.310Z,8.48
2023-01-18T09:11:29.880Z,7.80
2023-01-18T09:14:17.645Z,28.15
2023-01-18T09:16:45.465Z,10.85
2023-01-18T09:19:13.626Z,8.82
2023-01-18T09:21:41.501Z,9.13
2023-01-18T09:24:13.429Z,7.45
2023-01-18T09:26:41.190Z,13.77
2023-01-18T09:29:08.851Z,12.13
2023-01-18T09:31:36.828Z,14.95
2023-01-18T09:34:18.441Z,8.90
2023-01-18T09:39:15.302Z,9.15
2023-01-18T09:41:44.984Z,12.57
2023-01-18T09:44:45.815Z,8.85
2023-01-18T09:47:19.255Z,12.90
2023-01-18T09:49:56.682Z,11.95
2023-01-18T09:52:33.411Z,13.73
2023-01-18T09:55:09.487Z,11.10
2023-01-18T09:58:06.660Z,6.78
2023-01-18T10:00:36.543Z,14.75
2023-01-18T10:03:09.341Z,13.40
2023-01-18T10:05:42.957Z,11.88
2023-01-18T10:08:21.400Z,9.25
2023-01-18T10:11:09.811Z,10.50
2023-01-18T10:13:54.377Z,11.75
2023-01-18T10:16:24.367Z,11.88
2023-01-18T10:18:55.745Z,6.80
2023-01-18T10:21:54.494Z,5.50
2023-01-18T10:24:31.320Z,6.60
2023-01-18T10:27:16.848Z,6.00
2023-01-18T10:30:11.342Z,7.95
2023-01-18T10:32:39.644Z,5.85
2023-01-18T10:35:26.529Z,5.07
2023-01-18T10:37:58.590Z,8.38
2023-01-18T10:40:26.861Z,7.55
2023-01-18T10:43:02.595Z,6.30
2023-01-18T10:45:39.900Z,6.65
2023-01-18T10:48:33.261Z,8.27
2023-01-18T10:51:05.278Z,6.93
2023-01-18T10:53:37.958Z,7.70
2023-01-18T10:56:17.275Z,6.63
2023-01-18T10:59:02.983Z,6.30
2023-01-18T11:01:35.316Z,6.53
2023-01-18T11:04:26.000Z,9.10
2023-01-18T11:07:05.026Z,9.73
2023-01-18T11:09:43.563Z,9.05
2023-01-18T11:12:43.924Z,14.98
2023-01-18T11:15:14.848Z,17.52
2023-01-18T11:17:44.827Z,14.95
2023-01-18T11:20:44.905Z,17.60
2023-01-18T11:23:14.609Z,16.58
2023-01-18T11:26:05.996Z,9.20
2023-01-18T11:28:40.221Z,13.60
2023-01-18T11:31:08.667Z,15.77
2023-01-18T11:34:01.673Z,20.83
2023-01-18T11:36:43.735Z,11.32
2023-01-18T11:39:45.519Z,15.68
2023-01-18T11:42:21.323Z,15.90
2023-01-18T11:45:16.484Z,16.67
2023-01-18T11:48:06.982Z,10.30
2023-01-18T11:50:44.979Z,8.90
2023-01-18T11:53:31.673Z,10.82
2023-01-18T11:56:39.737Z,18.48
2023-01-18T11:59:15.206Z,14.52
2023-01-18T12:01:43.610Z,8.43
2023-01-18T12:04:42.981Z,8.90
2023-01-18T12:07:38.997Z,8.35
2023-01-18T12:10:11.041Z,7.30
2023-01-18T12:13:23.161Z,5.65
2023-01-18T12:16:09.126Z,5.97
2023-01-18T12:19:04.013Z,12.25
2023-01-18T12:21:57.981Z,11.55
2023-01-18T12:24:34.405Z,6.78
2023-01-18T12:27:16.600Z,10.07
2023-01-18T12:29:46.261Z,9.50
2023-01-18T12:32:21.809Z,13.07
2023-01-18T12:35:23.996Z,20.27
2023-01-18T12:38:05.844Z,15.95
2023-01-18T12:40:50.252Z,18.55
2023-01-18T12:43:27.280Z,7.95
2023-01-18T12:46:25.701Z,12.20
2023-01-18T12:48:56.701Z,11.55
2023-01-18T12:51:27.337Z,13.25
2023-01-18T12:53:58.860Z,8.15
2023-01-18T12:56:42.835Z,17.75
2023-01-18T12:59:35.914Z,9.48
2023-01-18T13:02:22.494Z,11.73
2023-01-18T13:05:06.909Z,8.73
2023-01-18T13:07:44.850Z,17.50
2023-01-18T13:10:28.703Z,11.90
2023-01-18T13:12:57.429Z,13.75
2023-01-18T13:15:34.533Z,11.82
2023-01-18T13:18:18.048Z,10.10
2023-01-18T13:20:58.189Z,15.05
2023-01-18T13:23:37.629Z,13.93
2023-01-18T13:26:11.541Z,10.52
2023-01-18T13:28:39.340Z,9.30
2023-01-18T13:31:12.279Z,25.17
2023-01-18T13:33:41.200Z,19.70
2023-01-18T13:36:14.162Z,30.20
2023-01-18T13:38:56.309Z,12.93
2023-01-18T13:41:32.339Z,17.33
2023-01-18T13:44:03.005Z,17.58
2023-01-18T13:46:35.554Z,12.18
2023-01-18T13:49:36.364Z,15.32
2023-01-18T13:52:31.632Z,19.52
2023-01-18T13:55:04.048Z,13.27
2023-01-18T13:57:33.884Z,14.60
2023-01-18T14:00:02.610Z,10.90
2023-01-18T14:02:44.871Z,15.07
2023-01-18T14:05:25.871Z,11.57
2023-01-18T14:08:02.110Z,16.45
2023-01-18T14:10:36.990Z,10.23
2023-01-18T14:13:08.695Z,6.18
2023-01-18T14:15:53.317Z,15.38
2023-01-18T14:18:42.588Z,10.45
2023-01-18T14:21:47.726Z,4.80
2023-01-18T14:24:38.937Z,14.82
2023-01-18T14:27:08.177Z,6.75
2023-01-18T14:29:48.325Z,12.02
2023-01-18T14:32:27.865Z,12.30
2023-01-18T14:35:04.426Z,11.35
2023-01-18T14:40:07.422Z,10.73
2023-01-18T14:42:45.824Z,10.10
2023-01-18T14:45:30.058Z,10.73
2023-01-18T14:48:01.373Z,8.60
2023-01-18T14:50:34.463Z,10.07
2023-01-18T14:53:02.279Z,10.02
2023-01-18T14:55:34.834Z,9.82
2023-01-18T14:58:16.623Z,6.55
2023-01-18T15:00:52.214Z,13.98
2023-01-18T15:03:28.904Z,10.45
2023-01-18T15:06:10.892Z,7.68
2023-01-18T15:08:46.004Z,7.63
2023-01-18T15:11:14.868Z,7.70
2023-01-18T15:13:56.395Z,7.97
2023-01-18T15:16:27.262Z,4.40
2023-01-18T15:18:56.206Z,4.47
2023-01-18T15:21:28.047Z,6.60
2023-01-18T15:24:05.167Z,10.30
2023-01-18T15:26:56.244Z,5.57
2023-01-18T15:29:38.946Z,9.50
2023-01-18T15:34:43.593Z,5.60
2023-01-18T15:37:32.512Z,6.60
2023-01-18T15:42:37.304Z,7.75
2023-01-18T15:45:16.403Z,6.70
2023-01-18T15:47:52.572Z,4.75
2023-01-18T15:50:24.533Z,6.22
2023-01-18T15:53:12.063Z,4.05
2023-01-18T15:56:01.948Z,3.42
2023-01-18T15:58:53.474Z,5.50
2023-01-18T16:01:28.155Z,2.78
2023-01-18T16:04:00.354Z,2.63
2023-01-18T16:06:29.863Z,7.10
2023-01-18T16:09:12.671Z,2.92
2023-01-18T16:11:56.470Z,3.42
2023-01-18T16:14:28.362Z,6.68
2023-01-18T16:16:57.256Z,1.67
2023-01-18T16:19:31.812Z,11.27
2023-01-18T16:22:05.045Z,8.27
2023-01-18T16:24:47.163Z,10.70
2023-01-18T16:27:19.156Z,14.70
2023-01-18T16:29:48.888Z,16.35
2023-01-18T16:32:29.042Z,10.90
2023-01-18T16:35:03.683Z,15.07
2023-01-18T16:37:31.940Z,9.00
2023-01-18T16:39:59.606Z,4.93
2023-01-18T16:42:37.359Z,5.15
2023-01-18T16:45:05.874Z,6.10
2023-01-18T16:47:34.564Z,4.75
2023-01-18T16:50:01.999Z,2.95
2023-01-18T16:52:29.771Z,5.45
2023-01-18T16:54:57.563Z,4.32
2023-01-18T16:57:25.253Z,3.28
2023-01-18T16:59:53.092Z,4.18
2023-01-18T17:02:20.855Z,4.43
2023-01-18T17:04:48.628Z,1.58
2023-01-18T17:07:16.249Z,1.92
2023-01-18T17:09:48.683Z,2.60
2023-01-18T17:12:16.914Z,4.88
2023-01-18T17:14:44.572Z,1.73
2023-01-18T17:17:13.879Z,2.67
2023-01-18T17:19:41.507Z,5.10
2023-01-18T17:22:09.190Z,4.15
2023-01-18T17:24:37.031Z,2.40
2023-01-18T17:27:04.597Z,2.80
2023-01-18T17:29:32.434Z,2.90
2023-01-18T17:32:00.200Z,7.55
2023-01-18T17:34:29.629Z,5.70
2023-01-18T17:36:58.825Z,2.03
2023-01-18T17:39:42.676Z,7.32
2023-01-18T17:42:19.307Z,1.70
2023-01-18T17:44:50.680Z,1.85
2023-01-18T17:47:18.014Z,0.93
2023-01-18T17:49:45.692Z,2.10
2023-01-18T17:52:13.441Z,7.57
2023-01-18T17:54:41.474Z,5.68
2023-01-18T17:57:09.313Z,4.15
2023-01-18T17:59:36.982Z,2.05
2023-01-18T18:02:04.858Z,1.70
2023-01-18T18:04:32.923Z,4.03
2023-01-18T18:07:00.799Z,1.67
2023-01-18T18:09:29.105Z,5.32
2023-01-18T18:11:57.435Z,4.15
2023-01-18T18:14:25.199Z,9.60
2023-01-18T18:16:53.007Z,3.15
2023-01-18T18:19:20.551Z,5.20
2023-01-18T18:21:48.582Z,2.35
2023-01-18T18:24:16.271Z,1.23
2023-01-18T18:26:43.876Z,3.38
2023-01-18T18:29:11.738Z,4.07
2023-01-18T18:31:39.865Z,0.95
2023-01-18T18:34:08.785Z,1.52
2023-01-18T18:36:36.703Z,5.13
2023-01-18T18:39:05.705Z,1.27
2023-01-18T18:41:33.637Z,5.50
2023-01-18T18:44:01.685Z,4.85
2023-01-18T18:46:29.478Z,4.30
2023-01-18T18:48:57.063Z,3.25
2023-01-18T18:51:25.608Z,4.30
2023-01-18T18:53:53.509Z,1.50
2023-01-18T18:56:21.121Z,1.83
2023-01-18T18:58:49.183Z,8.13
2023-01-18T19:01:25.344Z,2.03
2023-01-18T19:03:53.871Z,1.73
2023-01-18T19:06:23.697Z,1.00
2023-01-18T19:08:51.543Z,4.03
2023-01-18T19:11:19.405Z,4.50
2023-01-18T19:13:49.449Z,4.60
2023-01-18T19:16:17.451Z,3.00
2023-01-18T19:18:45.324Z,6.15
2023-01-18T19:21:12.958Z,3.60
2023-01-18T19:23:40.601Z,3.92
2023-01-18T19:26:08.425Z,2.28
2023-01-18T19:28:36.846Z,3.60
2023-01-18T19:31:06.157Z,5.95
2023-01-18T19:33:34.474Z,9.35
2023-01-18T19:36:11.352Z,4.55
2023-01-18T19:38:46.114Z,6.50
2023-01-18T19:41:15.114Z,9.18
2023-01-18T19:43:45.892Z,8.18
2023-01-18T19:46:15.384Z,6.95
2023-01-18T19:48:43.306Z,6.75
2023-01-18T19:51:22.390Z,3.33
2023-01-18T19:53:55.103Z,5.40
2023-01-18T19:56:24.533Z,8.10
2023-01-18T19:58:52.335Z,4.03
2023-01-18T20:01:34.674Z,4.85
2023-01-18T20:04:04.444Z,3.20
2023-01-18T20:06:32.207Z,2.45
2023-01-18T20:08:59.819Z,4.05
2023-01-18T20:11:27.604Z,5.80
2023-01-18T20:13:55.997Z,6.18
2023-01-18T20:16:24.692Z,6.28
2023-01-18T20:18:54.125Z,3.03
2023-01-18T20:21:21.834Z,1.80
2023-01-18T20:23:49.484Z,1.92
2023-01-18T20:26:22.156Z,3.63
2023-01-18T20:28:56.118Z,1.50
2023-01-18T20:31:24.444Z,2.00
2023-01-18T20:33:52.889Z,2.83
2023-01-18T20:36:20.483Z,3.38
2023-01-18T20:38:48.327Z,1.20
2023-01-18T20:41:16.030Z,5.82
2023-01-18T20:43:43.829Z,1.27
2023-01-18T20:46:11.943Z,2.88
2023-01-18T20:48:39.915Z,4.63
2023-01-18T20:51:07.762Z,1.95
2023-01-18T20:53:35.344Z,4.80
2023-01-18T20:56:17.066Z,1.77
2023-01-18T20:58:55.369Z,2.75
2023-01-18T21:01:23.160Z,1.45
2023-01-18T21:03:54.966Z,1.52
2023-01-18T21:06:22.828Z,3.72
2023-01-18T21:08:53.594Z,2.38
2023-01-18T21:11:25.472Z,5.07
2023-01-18T21:13:54.139Z,4.10
2023-01-18T21:16:22.218Z,1.20
2023-01-18T21:18:52.692Z,5.50
2023-01-18T21:21:20.454Z,1.08
2023-01-18T21:23:48.077Z,1.63
2023-01-18T21:26:15.834Z,2.58
2023-01-18T21:28:43.496Z,1.23
2023-01-18T21:31:11.639Z,2.25
2023-01-18T21:33:39.962Z,1.33
2023-01-18T21:36:09.579Z,4.88
2023-01-18T21:38:37.223Z,6.10
2023-01-18T21:41:25.056Z,2.28
2023-01-18T21:44:12.479Z,1.83
2023-01-18T21:46:45.668Z,1.45
2023-01-18T21:49:47.111Z,10.35
2023-01-18T21:52:38.292Z,2.47
2023-01-18T21:55:06.075Z,1.30
2023-01-18T21:57:33.739Z,2.13
2023-01-18T22:00:01.285Z,1.98
2023-01-18T22:02:29.291Z,5.78
2023-01-18T22:04:58.047Z,2.40
2023-01-18T22:07:26.219Z,4.28
2023-01-18T22:10:04.038Z,3.38
2023-01-18T22:12:35.597Z,2.90
2023-01-18T22:15:04.491Z,1.75
2023-01-18T22:17:32.177Z,7.35
2023-01-18T22:20:00.381Z,3.22
2023-01-18T22:22:28.282Z,1.02
2023-01-18T22:24:57.086Z,1.65
2023-01-18T22:27:24.770Z,5.28
2023-01-18T22:29:52.613Z,2.45
2023-01-18T22:32:21.681Z,1.25
2023-01-18T22:34:49.987Z,2.30
2023-01-18T22:37:17.725Z,4.40
2023-01-18T22:39:45.440Z,8.73
2023-01-18T22:42:13.391Z,3.17
2023-01-18T22:44:40.914Z,2.25
2023-01-18T22:47:08.301Z,2.17
2023-01-18T22:49:35.925Z,1.73
2023-01-18T22:52:03.622Z,3.97
2023-01-18T22:54:31.238Z,2.15
2023-01-18T22:56:58.858Z,5.45
2023-01-18T22:59:26.344Z,6.47
2023-01-18T23:01:53.787Z,1.48
2023-01-18T23:04:21.449Z,5.53
2023-01-18T23:06:50.749Z,4.97
2023-01-18T23:09:18.814Z,1.17
2023-01-18T23:11:47.790Z,1.80
2023-01-18T23:14:33.613Z,1.48
2023-01-18T23:17:19.854Z,5.97
2023-01-18T23:19:47.588Z,7.43
2023-01-18T23:22:15.280Z,2.03
2023-01-18T23:24:43.138Z,0.65
2023-01-18T23:27:10.863Z,4.43
2023-01-18T23:29:39.338Z,0.90
2023-01-18T23:32:07.134Z,0.90
2023-01-18T23:34:37.632Z,5.20
2023-01-18T23:37:05.441Z,1.13
2023-01-18T23:39:51.912Z,5.30
2023-01-18T23:42:38.084Z,2.08
2023-01-18T23:45:25.006Z,2.80
2023-01-18T23:48:11.199Z,1.05
2023-01-18T23:50:57.433Z,3.00
2023-01-18T23:53:43.441Z,0.98
2023-01-18T23:56:11.194Z,3.22
2023-01-18T23:58:40.885Z,4.72
